createdAt,value
2023-05-04T00:00:10.476Z,5.10
2023-05-04T00:05:13.639Z,5.10
2023-05-04T00:10:15.188Z,4.85
2023-05-04T00:15:16.806Z,4.95
2023-05-04T00:20:18.857Z,4.95
2023-05-04T00:25:20.542Z,5.20
2023-05-04T00:30:22.128Z,4.90
2023-05-04T00:35:25.190Z,4.70
2023-05-04T00:40:26.752Z,4.85
2023-05-04T00:45:28.588Z,5.50
2023-05-04T00:50:30.417Z,5.05
2023-05-04T00:55:32.183Z,4.63
2023-05-04T01:00:33.882Z,5.25
2023-05-04T01:05:38.684Z,5.07
2023-05-04T01:10:52.456Z,5.03
2023-05-04T01:15:54.670Z,4.82
2023-05-04T01:20:56.900Z,5.40
2023-05-04T01:26:16.595Z,4.75
2023-05-04T01:31:21.521Z,5.13
2023-05-04T01:36:23.591Z,5.00
2023-05-04T01:41:26.708Z,5.32
2023-05-04T01:46:28.434Z,4.80
2023-05-04T01:51:30.091Z,4.88
2023-05-04T01:56:31.914Z,5.28
2023-05-04T02:01:33.528Z,4.65
2023-05-04T02:06:35.387Z,5.40
2023-05-04T02:11:37.081Z,4.85
2023-05-04T02:16:39.695Z,4.63
2023-05-04T02:21:42.239Z,4.78
2023-05-04T02:26:43.818Z,4.90
2023-05-04T02:31:45.457Z,4.93
2023-05-04T02:36:48.924Z,4.82
2023-05-04T02:41:50.755Z,4.95
2023-05-04T02:46:54.977Z,4.95
2023-05-04T02:51:56.686Z,5.03
2023-05-04T02:56:58.287Z,4.95
2023-05-04T03:02:00.063Z,4.68
2023-05-04T03:07:01.721Z,5.00
2023-05-04T03:12:04.312Z,4.32
2023-05-04T03:17:07.052Z,5.00
2023-05-04T03:22:08.909Z,4.32
2023-05-04T03:27:10.582Z,4.53
2023-05-04T03:32:13.843Z,4.55
2023-05-04T03:37:16.485Z,4.90
2023-05-04T03:42:18.152Z,4.97
2023-05-04T03:47:19.776Z,4.60
2023-05-04T03:52:21.718Z,4.95
2023-05-04T03:57:24.269Z,5.03
2023-05-04T04:02:28.099Z,4.75
2023-05-04T04:07:33.121Z,4.65
2023-05-04T04:12:34.958Z,4.57
2023-05-04T04:17:36.533Z,4.47
2023-05-04T04:22:38.124Z,5.32
2023-05-04T04:27:39.786Z,4.88
2023-05-04T04:32:41.394Z,5.70
2023-05-04T04:37:42.983Z,4.97
2023-05-04T04:42:44.610Z,5.32
2023-05-04T04:47:46.276Z,5.05
2023-05-04T04:52:47.843Z,5.05
2023-05-04T04:57:50.708Z,5.10
2023-05-04T05:02:52.329Z,5.65
2023-05-04T05:07:53.926Z,4.65
2023-05-04T05:12:55.716Z,5.13
2023-05-04T05:17:57.340Z,5.25
2023-05-04T05:22:58.907Z,5.18
2023-05-04T05:28:00.484Z,5.22
2023-05-04T05:33:03.732Z,5.30
2023-05-04T05:38:05.385Z,5.28
2023-05-04T05:43:06.991Z,5.38
2023-05-04T05:48:08.791Z,5.03
2023-05-04T05:53:10.420Z,4.78
2023-05-04T05:58:11.965Z,4.95
2023-05-04T06:03:14.361Z,5.20
2023-05-04T06:08:16.054Z,5.05
2023-05-04T06:13:17.755Z,5.43
2023-05-04T06:18:20.291Z,5.45
2023-05-04T06:23:21.920Z,5.00
2023-05-04T06:28:23.474Z,5.20
2023-05-04T06:33:25.105Z,4.90
2023-05-04T06:38:26.803Z,5.57
2023-05-04T06:43:28.380Z,4.30
2023-05-04T06:48:30.516Z,4.63
2023-05-04T06:53:32.088Z,4.72
2023-05-04T06:58:33.698Z,4.40
2023-05-04T07:03:35.510Z,4.05
2023-05-04T07:08:37.416Z,4.50
2023-05-04T07:13:39.022Z,4.30
2023-05-04T07:18:40.706Z,4.10
2023-05-04T07:23:42.698Z,4.30
2023-05-04T07:28:44.336Z,4.43
2023-05-04T07:33:46.003Z,4.10
2023-05-04T07:38:47.694Z,3.75
2023-05-04T07:43:49.404Z,3.67
2023-05-04T07:48:51.003Z,3.88
2023-05-04T07:53:52.631Z,3.60
2023-05-04T07:58:54.251Z,3.45
2023-05-04T08:03:55.822Z,3.08
2023-05-04T08:08:57.425Z,2.65
2023-05-04T08:13:59.068Z,3.00
2023-05-04T08:19:01.390Z,3.40
2023-05-04T08:24:03.588Z,3.08
2023-05-04T08:29:10.753Z,3.50
2023-05-04T08:34:12.521Z,2.92
2023-05-04T08:39:14.157Z,3.42
2023-05-04T08:44:17.528Z,2.88
2023-05-04T08:49:23.076Z,3.03
2023-05-04T08:54:25.482Z,2.88
2023-05-04T08:59:28.444Z,2.95
2023-05-04T09:04:31.110Z,3.13
2023-05-04T09:09:32.805Z,3.08
2023-05-04T09:14:35.743Z,3.10
2023-05-04T09:19:38.917Z,2.95
2023-05-04T09:24:40.640Z,3.50
2023-05-04T09:29:42.496Z,2.55
2023-05-04T09:34:53.703Z,3.20
2023-05-04T09:39:58.748Z,3.30
2023-05-04T09:45:00.993Z,2.97
2023-05-04T09:50:20.918Z,2.95
2023-05-04T09:55:23.384Z,3.13
2023-05-04T10:00:25.381Z,2.58
2023-05-04T10:05:27.112Z,2.90
2023-05-04T10:10:28.777Z,3.00
2023-05-04T10:15:30.691Z,2.90
2023-05-04T10:20:59.356Z,2.95
2023-05-04T10:26:00.850Z,2.70
2023-05-04T10:31:02.822Z,2.90
2023-05-04T10:36:04.673Z,2.80
2023-05-04T10:41:19.484Z,2.50
2023-05-04T10:46:22.967Z,2.47
2023-05-04T10:51:32.699Z,2.63
2023-05-04T10:56:37.525Z,2.42
2023-05-04T11:01:44.904Z,2.47
2023-05-04T11:06:58.488Z,2.42
2023-05-04T11:12:00.111Z,2.60
2023-05-04T11:22:20.119Z,2.40
2023-05-04T11:27:28.726Z,2.42
2023-05-04T11:32:40.018Z,2.90
2023-05-04T11:37:42.907Z,2.65
2023-05-04T11:42:45.479Z,2.40
2023-05-04T11:47:47.897Z,2.70
2023-05-04T11:52:49.634Z,2.90
2023-05-04T11:58:01.475Z,2.55
2023-05-04T12:03:05.839Z,2.38
2023-05-04T12:08:08.801Z,2.30
2023-05-04T12:13:19.385Z,2.30
2023-05-04T12:18:22.905Z,2.35
2023-05-04T12:23:24.537Z,2.10
2023-05-04T12:28:26.848Z,2.22
2023-05-04T12:33:28.513Z,2.38
2023-05-04T12:38:30.440Z,2.08
2023-05-04T12:43:33.036Z,2.17
2023-05-04T12:48:34.837Z,2.25
2023-05-04T12:53:36.752Z,2.20
2023-05-04T12:58:38.377Z,2.35
2023-05-04T13:03:40.163Z,2.35
2023-05-04T13:08:41.796Z,2.40
2023-05-04T13:13:43.334Z,2.13
2023-05-04T13:18:44.933Z,2.55
2023-05-04T13:23:46.662Z,2.40
2023-05-04T13:28:48.659Z,2.03
2023-05-04T13:33:50.496Z,2.40
2023-05-04T13:38:52.086Z,2.63
2023-05-04T13:43:54.109Z,2.25
2023-05-04T13:48:57.089Z,2.30
2023-05-04T13:54:01.054Z,2.20
2023-05-04T13:59:04.077Z,2.10
2023-05-04T14:04:06.448Z,2.50
2023-05-04T14:09:08.508Z,2.28
2023-05-04T14:14:10.111Z,2.58
2023-05-04T14:19:11.676Z,2.10
2023-05-04T14:24:13.329Z,2.03
2023-05-04T14:29:14.868Z,2.25
2023-05-04T14:34:16.649Z,2.38
2023-05-04T14:39:18.302Z,2.05
2023-05-04T14:44:20.650Z,2.20
2023-05-04T14:49:35.784Z,1.92
2023-05-04T14:54:38.489Z,2.10
2023-05-04T14:59:40.342Z,2.10
2023-05-04T15:04:41.926Z,2.13
2023-05-04T15:09:43.611Z,2.30
2023-05-04T15:14:46.142Z,2.33
2023-05-04T15:19:47.736Z,2.10
2023-05-04T15:24:49.308Z,2.00
2023-05-04T15:29:50.836Z,2.42
2023-05-04T15:35:04.607Z,2.05
2023-05-04T15:40:08.179Z,2.42
2023-05-04T15:45:10.740Z,2.47
2023-05-04T15:50:12.878Z,2.13
2023-05-04T15:55:25.228Z,2.50
2023-05-04T16:00:27.766Z,2.30
2023-05-04T16:05:29.435Z,2.40
2023-05-04T16:10:31.120Z,2.47
2023-05-04T16:15:32.758Z,2.35
2023-05-04T16:20:34.341Z,2.40
2023-05-04T16:25:36.022Z,2.17
2023-05-04T16:30:37.888Z,4.30
2023-05-04T16:35:39.759Z,2.20
2023-05-04T16:40:42.304Z,2.25
2023-05-04T16:45:44.635Z,2.58
2023-05-04T16:50:46.421Z,2.78
2023-05-04T16:55:48.068Z,2.70
2023-05-04T17:00:49.674Z,2.60
2023-05-04T17:05:51.300Z,2.47
2023-05-04T17:10:52.929Z,2.33
2023-05-04T17:15:54.582Z,2.67
2023-05-04T17:20:56.214Z,2.17
2023-05-04T17:25:57.854Z,2.60
2023-05-04T17:30:59.455Z,2.30
2023-05-04T17:36:01.034Z,2.20
2023-05-04T17:41:02.704Z,2.75
2023-05-04T17:46:04.550Z,2.45
2023-05-04T17:51:09.258Z,2.40
2023-05-04T17:56:10.847Z,2.50
2023-05-04T18:01:12.593Z,2.83
2023-05-04T18:06:14.441Z,2.20
2023-05-04T18:11:16.157Z,2.80
2023-05-04T18:16:18.120Z,2.50
2023-05-04T18:21:19.701Z,2.50
2023-05-04T18:26:22.664Z,2.50
2023-05-04T18:31:24.594Z,2.47
2023-05-04T18:36:26.222Z,2.30
2023-05-04T18:41:28.294Z,2.60
2023-05-04T18:46:29.842Z,2.40
2023-05-04T18:51:31.445Z,2.40
2023-05-04T18:56:33.128Z,2.65
2023-05-04T19:01:34.983Z,3.10
2023-05-04T19:06:36.643Z,2.78
2023-05-04T19:11:38.248Z,2.58
2023-05-04T19:16:40.149Z,2.78
2023-05-04T19:21:42.903Z,2.45
2023-05-04T19:26:44.926Z,2.88
2023-05-04T19:31:47.314Z,2.75
2023-05-04T19:36:48.925Z,2.53
2023-05-04T19:41:50.687Z,2.78
2023-05-04T19:46:52.442Z,3.00
2023-05-04T19:51:54.042Z,2.80
2023-05-04T19:56:55.620Z,3.20
2023-05-04T20:01:58.901Z,3.22
2023-05-04T20:07:00.542Z,3.22
2023-05-04T20:12:02.714Z,4.25
2023-05-04T20:17:04.590Z,3.88
2023-05-04T20:22:06.331Z,3.90
2023-05-04T20:27:08.342Z,4.07
2023-05-04T20:32:10.762Z,3.58
2023-05-04T20:37:12.395Z,3.90
2023-05-04T20:42:14.411Z,3.40
2023-05-04T20:47:16.142Z,3.50
2023-05-04T20:52:17.719Z,3.83
2023-05-04T20:57:19.358Z,3.53
2023-05-04T21:02:21.455Z,3.80
2023-05-04T21:07:23.558Z,3.72
2023-05-04T21:12:25.770Z,3.70
2023-05-04T21:17:27.412Z,3.83
2023-05-04T21:22:29.029Z,3.95
2023-05-04T21:27:30.692Z,3.47
2023-05-04T21:32:32.286Z,3.83
2023-05-04T21:37:33.948Z,4.00
2023-05-04T21:42:35.505Z,3.47
2023-05-04T21:47:37.279Z,3.55
2023-05-04T21:52:38.897Z,4.07
2023-05-04T21:57:40.498Z,3.72
2023-05-04T22:02:42.087Z,3.40
2023-05-04T22:07:43.705Z,3.85
2023-05-04T22:12:45.439Z,3.85
2023-05-04T22:17:47.492Z,3.40
2023-05-04T22:22:51.033Z,4.03
2023-05-04T22:27:52.654Z,3.70
2023-05-04T22:32:54.508Z,3.97
2023-05-04T22:37:56.085Z,4.18
2023-05-04T22:42:57.651Z,4.25
2023-05-04T22:47:59.269Z,4.20
2023-05-04T22:53:02.061Z,4.30
2023-05-04T22:58:03.724Z,4.32
2023-05-04T23:03:06.390Z,4.30
2023-05-04T23:08:08.382Z,4.63
2023-05-04T23:13:10.069Z,4.28
2023-05-04T23:18:11.723Z,4.40
2023-05-04T23:23:13.374Z,4.60
2023-05-04T23:28:14.897Z,4.43
2023-05-04T23:33:16.471Z,4.15
2023-05-04T23:38:18.048Z,4.22
2023-05-04T23:43:19.856Z,4.30
2023-05-04T23:48:21.417Z,4.43
2023-05-04T23:53:23.244Z,4.38
2023-05-04T23:58:25.145Z,4.32
